Lakefield, Canada
Current Conditions -  °F | °C
As of 9:00 AM on Thursday 27 Nov 2014 (Local Time) from CYPQ Reporting Station
Overcast Overcast  
Wind Chill: -7°   Ceiling: 6500
Heat Index: -4°   Visibility: 9mi
Dew Point: -6°   Wind: 5mph
Humidity: 86%   Direction: 20°NNE
Pressure: 30.06"   Gusts: NA
Location:  44.43°N, 78.27°W
Report Text: CYPQ 271400Z AUTO 02004KT 9SM OVC065 M04/M06 A3006 RMK SLP188
Loading
Personal Weather Stations






























Interactive Weather Map New forecast layout! Learn more

10-Day Weather Forecast

Advertisements
Track Severe Weather on mobile